This is the latest recevied weather packets stored in our database for station/object WD8EHT. If no packets are shown the sender has not sent any weather packets the latest 1 day(s).
| Time | Temp. | Humidity | Pressure | Rain* | Wind** | Luminosity | Snow |
|---|---|---|---|---|---|---|---|
| 1778073741 | 8.33° C | 58% | 1010.8 hPa | 0 mm | - | 410 W/m² | - |
| 1778073439 | 8.33° C | 58% | 1010.6 hPa | 0 mm | - | 416 W/m² | - |
| 1778071622 | 8.33° C | 58% | 1010.4 hPa | 0 mm | - | 341 W/m² | - |
| 1778071320 | 7.78° C | 59% | 1010.3 hPa | 0 mm | - | 324 W/m² | - |
| 1778071017 | 7.78° C | 59% | 1010.1 hPa | 0 mm | - | 281 W/m² | - |
| 1778070412 | 7.22° C | 60% | 1010 hPa | 0 mm | - | 234 W/m² | - |
| 1778069807 | 6.67° C | 62% | 1009.7 hPa | 0 mm | - | 210 W/m² | - |
| 1778069503 | 6.67° C | 62% | 1010 hPa | 0 mm | - | 182 W/m² | - |
| 1778068898 | 6.67° C | 64% | 1009.6 hPa | 0 mm | - | 153 W/m² | - |
| 1778068597 | 6.11° C | 65% | 1009.5 hPa | 0 mm | - | 127 W/m² | - |
| 1778067388 | 5.56° C | 68% | 1009.2 hPa | 0 mm | - | 33 W/m² | - |
| 1778066176 | 5° C | 69% | 1009.1 hPa | 0 mm | - | 34 W/m² | - |
| 1778065571 | 5° C | 68% | 1009.1 hPa | 0 mm | - | 32 W/m² | - |
| 1778064057 | 5° C | 70% | 1008.6 hPa | 0 mm | - | 8 W/m² | - |
| 1778063754 | 5° C | 69% | 1008.5 hPa | 0 mm | - | 3 W/m² | - |
| 1778062240 | 5° C | 68% | 1008.5 hPa | 0 mm | - | 0 W/m² | - |
| 1778061938 | 5° C | 68% | 1008.6 hPa | 0 mm | - | 0 W/m² | - |
| 1778061030 | 5.56° C | 68% | 1008.1 hPa | 0 mm | - | 0 W/m² | - |
| 1778060728 | 5.56° C | 67% | 1008.3 hPa | 0 mm | - | 0 W/m² | - |
| 1778060426 | 5.56° C | 66% | 1007.9 hPa | 0 mm | - | 0 W/m² | - |
| 1778060124 | 6.11° C | 64% | 1007.9 hPa | 0 mm | - | 0 W/m² | - |
| 1778059821 | 6.11° C | 65% | 1007.8 hPa | 0 mm | - | 0 W/m² | - |
| 1778059519 | 6.11° C | 64% | 1008 hPa | 0 mm | - | 0 W/m² | - |
| 1778059215 | 6.11° C | 64% | 1007.9 hPa | 0 mm | - | 0 W/m² | - |
| 1778058914 | 6.11° C | 64% | 1007.7 hPa | 0 mm | - | 0 W/m² | - |
* Rain latest hour (hover to see other rain measurements)
** Current wind speed in m/s (hover to see current wind gust speed)